sensor_id;sensor_type;location;lat;lon;timestamp;pressure;altitude;pressure_sealevel;temperature;humidity
40794;BME280;26502;51.886;15.604;2022-11-27T00:00:08;102112.43;;;5.86;86.17
40794;BME280;26502;51.886;15.604;2022-11-27T00:05:38;102107.23;;;5.94;86.06
40794;BME280;26502;51.886;15.604;2022-11-27T00:10:46;102106.40;;;5.98;86.05
40794;BME280;26502;51.886;15.604;2022-11-27T00:15:53;102098.03;;;5.92;85.79
40794;BME280;26502;51.886;15.604;2022-11-27T00:21:05;102087.71;;;5.98;85.99
40794;BME280;26502;51.886;15.604;2022-11-27T00:26:15;102088.86;;;6.07;86.00
40794;BME280;26502;51.886;15.604;2022-11-27T00:31:24;102089.07;;;5.94;85.64
40794;BME280;26502;51.886;15.604;2022-11-27T00:36:34;102093.14;;;5.78;85.48
40794;BME280;26502;51.886;15.604;2022-11-27T00:41:41;102088.33;;;5.73;85.84
40794;BME280;26502;51.886;15.604;2022-11-27T00:46:48;102085.00;;;5.75;85.96
40794;BME280;26502;51.886;15.604;2022-11-27T00:51:57;102090.64;;;5.74;85.88
40794;BME280;26502;51.886;15.604;2022-11-27T00:57:05;102088.30;;;5.70;85.85
40794;BME280;26502;51.886;15.604;2022-11-27T01:02:12;102088.30;;;5.71;86.06
40794;BME280;26502;51.886;15.604;2022-11-27T01:07:19;102086.55;;;5.72;86.14
40794;BME280;26502;51.886;15.604;2022-11-27T01:12:27;102079.73;;;5.79;86.21
40794;BME280;26502;51.886;15.604;2022-11-27T01:17:34;102083.60;;;5.78;86.03
40794;BME280;26502;51.886;15.604;2022-11-27T01:22:42;102079.68;;;5.73;86.09
40794;BME280;26502;51.886;15.604;2022-11-27T01:27:49;102083.73;;;5.73;86.11
40794;BME280;26502;51.886;15.604;2022-11-27T01:32:57;102083.94;;;5.76;86.32
40794;BME280;26502;51.886;15.604;2022-11-27T01:38:04;102084.40;;;5.69;86.09
40794;BME280;26502;51.886;15.604;2022-11-27T01:43:15;102084.30;;;5.58;86.12
40794;BME280;26502;51.886;15.604;2022-11-27T01:48:22;102082.63;;;5.50;86.16
40794;BME280;26502;51.886;15.604;2022-11-27T01:53:30;102081.56;;;5.50;86.34
40794;BME280;26502;51.886;15.604;2022-11-27T01:58:39;102084.30;;;5.44;86.20
40794;BME280;26502;51.886;15.604;2022-11-27T02:03:47;102079.84;;;5.37;86.42
40794;BME280;26502;51.886;15.604;2022-11-27T02:08:54;102076.98;;;5.50;86.66
40794;BME280;26502;51.886;15.604;2022-11-27T02:14:17;102070.45;;;5.50;86.56
40794;BME280;26502;51.886;15.604;2022-11-27T02:19:42;102066.83;;;5.56;86.66
40794;BME280;26502;51.886;15.604;2022-11-27T02:25:04;102066.33;;;5.59;86.69
40794;BME280;26502;51.886;15.604;2022-11-27T02:30:13;102059.80;;;5.58;86.71
40794;BME280;26502;51.886;15.604;2022-11-27T02:35:25;102060.51;;;5.58;86.49
40794;BME280;26502;51.886;15.604;2022-11-27T02:40:41;102057.31;;;5.57;86.69
40794;BME280;26502;51.886;15.604;2022-11-27T02:45:51;102040.66;;;5.66;86.72
40794;BME280;26502;51.886;15.604;2022-11-27T02:51:01;102037.17;;;5.70;86.70
40794;BME280;26502;51.886;15.604;2022-11-27T02:56:12;102037.40;;;5.75;86.64
40794;BME280;26502;51.886;15.604;2022-11-27T03:01:24;102040.89;;;5.72;86.52
40794;BME280;26502;51.886;15.604;2022-11-27T03:06:35;102039.73;;;5.79;86.59
40794;BME280;26502;51.886;15.604;2022-11-27T03:11:46;102037.70;;;5.89;86.72
40794;BME280;26502;51.886;15.604;2022-11-27T03:17:04;102026.57;;;6.04;86.87
40794;BME280;26502;51.886;15.604;2022-11-27T03:22:14;102022.55;;;6.08;86.65
40794;BME280;26502;51.886;15.604;2022-11-27T03:27:26;102021.83;;;6.06;86.39
40794;BME280;26502;51.886;15.604;2022-11-27T03:32:36;102018.52;;;5.94;86.13
40794;BME280;26502;51.886;15.604;2022-11-27T03:37:43;102005.74;;;5.84;86.16
40794;BME280;26502;51.886;15.604;2022-11-27T03:43:00;101996.38;;;5.81;86.41
40794;BME280;26502;51.886;15.604;2022-11-27T03:48:19;101981.06;;;5.85;86.49
40794;BME280;26502;51.886;15.604;2022-11-27T03:53:37;101979.02;;;5.94;86.63
40794;BME280;26502;51.886;15.604;2022-11-27T03:58:52;101979.98;;;6.00;86.45
40794;BME280;26502;51.886;15.604;2022-11-27T04:04:01;101974.80;;;5.96;86.25
40794;BME280;26502;51.886;15.604;2022-11-27T04:09:08;101980.30;;;5.97;86.30
40794;BME280;26502;51.886;15.604;2022-11-27T04:14:18;101989.52;;;6.02;86.30
40794;BME280;26502;51.886;15.604;2022-11-27T04:19:25;102002.64;;;5.92;86.05
40794;BME280;26502;51.886;15.604;2022-11-27T04:24:32;102004.11;;;5.79;86.04
40794;BME280;26502;51.886;15.604;2022-11-27T04:29:39;102001.75;;;5.71;86.21
40794;BME280;26502;51.886;15.604;2022-11-27T04:34:47;102003.50;;;5.68;86.43
40794;BME280;26502;51.886;15.604;2022-11-27T04:39:54;102005.58;;;5.64;86.23
40794;BME280;26502;51.886;15.604;2022-11-27T04:45:01;102007.86;;;5.64;86.45
40794;BME280;26502;51.886;15.604;2022-11-27T04:50:10;102015.64;;;5.66;86.40
40794;BME280;26502;51.886;15.604;2022-11-27T04:55:19;102012.05;;;5.60;86.38
40794;BME280;26502;51.886;15.604;2022-11-27T05:00:27;102014.54;;;5.61;86.43
40794;BME280;26502;51.886;15.604;2022-11-27T05:05:34;102017.00;;;5.60;86.39
40794;BME280;26502;51.886;15.604;2022-11-27T05:10:43;102021.54;;;5.56;86.47
40794;BME280;26502;51.886;15.604;2022-11-27T05:15:51;102024.80;;;5.48;86.41
40794;BME280;26502;51.886;15.604;2022-11-27T05:21:00;102024.01;;;5.39;86.59
40794;BME280;26502;51.886;15.604;2022-11-27T05:26:08;102020.66;;;5.39;86.50
40794;BME280;26502;51.886;15.604;2022-11-27T05:31:15;102027.71;;;5.39;86.79
40794;BME280;26502;51.886;15.604;2022-11-27T05:36:22;102030.34;;;5.38;86.76
40794;BME280;26502;51.886;15.604;2022-11-27T05:41:31;102035.65;;;5.41;86.79
40794;BME280;26502;51.886;15.604;2022-11-27T05:46:38;102030.55;;;5.43;86.70
40794;BME280;26502;51.886;15.604;2022-11-27T05:51:48;102033.89;;;5.40;86.61
40794;BME280;26502;51.886;15.604;2022-11-27T05:56:55;102035.46;;;5.40;86.79
40794;BME280;26502;51.886;15.604;2022-11-27T06:02:03;102034.45;;;5.43;86.90
40794;BME280;26502;51.886;15.604;2022-11-27T06:07:10;102024.55;;;5.41;86.76
40794;BME280;26502;51.886;15.604;2022-11-27T06:12:18;102021.99;;;5.32;86.70
40794;BME280;26502;51.886;15.604;2022-11-27T06:17:25;102024.08;;;5.28;86.69
40794;BME280;26502;51.886;15.604;2022-11-27T06:22:33;102023.90;;;5.28;86.74
40794;BME280;26502;51.886;15.604;2022-11-27T06:27:41;102027.27;;;5.31;86.74
40794;BME280;26502;51.886;15.604;2022-11-27T06:32:48;102024.44;;;5.30;86.57
40794;BME280;26502;51.886;15.604;2022-11-27T06:37:56;102025.44;;;5.25;86.63
40794;BME280;26502;51.886;15.604;2022-11-27T06:43:03;102025.13;;;5.27;86.86
40794;BME280;26502;51.886;15.604;2022-11-27T06:48:10;102025.81;;;5.26;86.67
40794;BME280;26502;51.886;15.604;2022-11-27T06:53:17;102025.44;;;5.25;86.77
40794;BME280;26502;51.886;15.604;2022-11-27T06:58:25;102019.82;;;5.26;86.88
40794;BME280;26502;51.886;15.604;2022-11-27T07:03:32;102014.14;;;5.23;86.70
40794;BME280;26502;51.886;15.604;2022-11-27T07:08:40;102017.40;;;5.14;86.80
40794;BME280;26502;51.886;15.604;2022-11-27T07:13:48;102017.21;;;5.13;86.86
40794;BME280;26502;51.886;15.604;2022-11-27T07:18:57;102017.48;;;5.21;87.14
40794;BME280;26502;51.886;15.604;2022-11-27T07:24:06;102016.48;;;5.27;87.19
40794;BME280;26502;51.886;15.604;2022-11-27T07:29:14;102012.27;;;5.27;86.73
40794;BME280;26502;51.886;15.604;2022-11-27T07:34:23;102003.45;;;5.27;86.84
40794;BME280;26502;51.886;15.604;2022-11-27T07:39:31;101999.94;;;5.28;86.59
40794;BME280;26502;51.886;15.604;2022-11-27T07:44:40;101992.39;;;5.31;86.80
40794;BME280;26502;51.886;15.604;2022-11-27T07:49:49;101990.67;;;5.36;86.88
40794;BME280;26502;51.886;15.604;2022-11-27T07:54:57;101985.73;;;5.34;86.64
40794;BME280;26502;51.886;15.604;2022-11-27T08:00:09;101981.70;;;5.37;86.68
40794;BME280;26502;51.886;15.604;2022-11-27T08:05:18;101982.16;;;5.48;86.76
40794;BME280;26502;51.886;15.604;2022-11-27T08:10:25;101987.04;;;5.62;86.65
40794;BME280;26502;51.886;15.604;2022-11-27T08:15:35;101989.45;;;5.75;86.67
40794;BME280;26502;51.886;15.604;2022-11-27T08:20:44;101990.58;;;5.85;86.62
40794;BME280;26502;51.886;15.604;2022-11-27T08:25:51;101995.39;;;5.90;86.39
40794;BME280;26502;51.886;15.604;2022-11-27T08:31:01;101993.73;;;6.00;86.44
40794;BME280;26502;51.886;15.604;2022-11-27T08:36:10;101993.66;;;6.13;86.46
40794;BME280;26502;51.886;15.604;2022-11-27T08:41:17;101995.50;;;6.25;86.31
40794;BME280;26502;51.886;15.604;2022-11-27T08:46:25;101995.83;;;6.22;86.02
40794;BME280;26502;51.886;15.604;2022-11-27T08:51:32;101994.82;;;6.03;85.66
40794;BME280;26502;51.886;15.604;2022-11-27T08:56:39;101996.08;;;5.87;85.68
40794;BME280;26502;51.886;15.604;2022-11-27T09:01:46;101994.77;;;5.77;85.76
40794;BME280;26502;51.886;15.604;2022-11-27T09:06:53;101996.17;;;5.96;86.37
40794;BME280;26502;51.886;15.604;2022-11-27T09:12:01;102002.68;;;6.16;86.32
40794;BME280;26502;51.886;15.604;2022-11-27T09:17:08;102002.39;;;6.26;86.13
40794;BME280;26502;51.886;15.604;2022-11-27T09:22:17;101999.43;;;6.34;85.90
40794;BME280;26502;51.886;15.604;2022-11-27T09:27:24;101994.87;;;6.36;85.66
40794;BME280;26502;51.886;15.604;2022-11-27T09:32:32;101990.72;;;6.50;85.77
40794;BME280;26502;51.886;15.604;2022-11-27T09:37:39;101986.88;;;6.58;85.54
40794;BME280;26502;51.886;15.604;2022-11-27T09:42:51;101978.78;;;6.64;85.64
40794;BME280;26502;51.886;15.604;2022-11-27T09:48:03;101979.67;;;6.67;85.38
40794;BME280;26502;51.886;15.604;2022-11-27T09:53:25;101969.96;;;6.63;85.32
40794;BME280;26502;51.886;15.604;2022-11-27T09:58:39;101960.41;;;6.63;85.23
40794;BME280;26502;51.886;15.604;2022-11-27T10:03:47;101960.63;;;6.69;85.36
40794;BME280;26502;51.886;15.604;2022-11-27T10:09:07;101958.84;;;6.65;85.16
40794;BME280;26502;51.886;15.604;2022-11-27T10:14:27;101951.56;;;6.57;85.18
40794;BME280;26502;51.886;15.604;2022-11-27T10:19:44;101950.68;;;6.59;85.26
40794;BME280;26502;51.886;15.604;2022-11-27T10:25:04;101943.58;;;6.45;85.23
40794;BME280;26502;51.886;15.604;2022-11-27T10:30:21;101943.78;;;6.53;85.59
40794;BME280;26502;51.886;15.604;2022-11-27T10:35:30;101940.08;;;6.52;85.47
40794;BME280;26502;51.886;15.604;2022-11-27T10:40:41;101937.39;;;6.47;85.39
40794;BME280;26502;51.886;15.604;2022-11-27T10:45:53;101940.38;;;6.44;85.51
40794;BME280;26502;51.886;15.604;2022-11-27T10:51:02;101932.24;;;6.40;85.62
40794;BME280;26502;51.886;15.604;2022-11-27T10:56:23;101934.21;;;6.44;85.71
40794;BME280;26502;51.886;15.604;2022-11-27T11:01:46;101933.17;;;6.50;85.76
40794;BME280;26502;51.886;15.604;2022-11-27T11:06:54;101926.45;;;6.47;85.71
40794;BME280;26502;51.886;15.604;2022-11-27T11:12:14;101914.45;;;6.49;85.80
40794;BME280;26502;51.886;15.604;2022-11-27T11:17:26;101913.39;;;6.44;85.59
40794;BME280;26502;51.886;15.604;2022-11-27T11:22:36;101910.73;;;6.39;85.52
40794;BME280;26502;51.886;15.604;2022-11-27T11:27:43;101910.35;;;6.38;85.58
40794;BME280;26502;51.886;15.604;2022-11-27T11:32:57;101911.77;;;6.41;85.59
40794;BME280;26502;51.886;15.604;2022-11-27T11:38:13;101912.69;;;6.46;85.61
40794;BME280;26502;51.886;15.604;2022-11-27T11:43:26;101910.92;;;6.49;85.48
40794;BME280;26502;51.886;15.604;2022-11-27T11:48:36;101909.34;;;6.50;85.46
40794;BME280;26502;51.886;15.604;2022-11-27T11:53:47;101901.36;;;6.40;85.42
40794;BME280;26502;51.886;15.604;2022-11-27T11:59:00;101899.10;;;6.46;85.64
40794;BME280;26502;51.886;15.604;2022-11-27T12:04:19;101898.77;;;6.50;85.65
40794;BME280;26502;51.886;15.604;2022-11-27T12:09:48;101895.23;;;6.53;85.57
40794;BME280;26502;51.886;15.604;2022-11-27T12:15:03;101883.77;;;6.53;85.52
40794;BME280;26502;51.886;15.604;2022-11-27T12:20:21;101874.06;;;6.55;85.50
40794;BME280;26502;51.886;15.604;2022-11-27T12:25:35;101874.27;;;6.61;85.69
40794;BME280;26502;51.886;15.604;2022-11-27T12:30:49;101868.65;;;6.71;85.66
40794;BME280;26502;51.886;15.604;2022-11-27T12:36:06;101861.25;;;6.76;85.58
40794;BME280;26502;51.886;15.604;2022-11-27T12:41:35;101859.48;;;6.73;85.43
40794;BME280;26502;51.886;15.604;2022-11-27T12:46:53;101855.57;;;6.68;85.44
40794;BME280;26502;51.886;15.604;2022-11-27T12:52:10;101854.38;;;6.80;85.60
40794;BME280;26502;51.886;15.604;2022-11-27T12:57:23;101849.46;;;7.14;86.03
40794;BME280;26502;51.886;15.604;2022-11-27T13:02:37;101838.98;;;7.79;86.16
40794;BME280;26502;51.886;15.604;2022-11-27T13:07:50;101826.80;;;8.22;85.70
40794;BME280;26502;51.886;15.604;2022-11-27T13:13:03;101813.30;;;8.34;85.03
40794;BME280;26502;51.886;15.604;2022-11-27T13:18:18;101812.65;;;8.23;84.53
40794;BME280;26502;51.886;15.604;2022-11-27T13:23:30;101812.36;;;8.05;84.20
40794;BME280;26502;51.886;15.604;2022-11-27T13:28:43;101822.01;;;7.77;83.70
40794;BME280;26502;51.886;15.604;2022-11-27T13:33:58;101824.52;;;7.56;83.92
40794;BME280;26502;51.886;15.604;2022-11-27T13:39:18;101814.98;;;7.56;84.14
40794;BME280;26502;51.886;15.604;2022-11-27T13:44:31;101809.33;;;7.52;84.09
40794;BME280;26502;51.886;15.604;2022-11-27T13:49:40;101804.37;;;7.50;84.00
40794;BME280;26502;51.886;15.604;2022-11-27T13:54:56;101805.45;;;7.40;84.02
40794;BME280;26502;51.886;15.604;2022-11-27T14:00:07;101810.76;;;7.40;84.13
40794;BME280;26502;51.886;15.604;2022-11-27T14:05:33;101809.52;;;7.42;84.19
40794;BME280;26502;51.886;15.604;2022-11-27T14:10:49;101805.63;;;7.50;84.15
40794;BME280;26502;51.886;15.604;2022-11-27T14:16:00;101791.48;;;7.49;84.05
40794;BME280;26502;51.886;15.604;2022-11-27T14:21:24;101781.05;;;7.45;84.15
40794;BME280;26502;51.886;15.604;2022-11-27T14:26:31;101774.69;;;7.45;84.03
40794;BME280;26502;51.886;15.604;2022-11-27T14:31:39;101778.77;;;7.44;84.01
40794;BME280;26502;51.886;15.604;2022-11-27T14:36:53;101765.33;;;7.41;83.93
40794;BME280;26502;51.886;15.604;2022-11-27T14:42:03;101772.25;;;7.30;83.78
40794;BME280;26502;51.886;15.604;2022-11-27T14:47:19;101768.55;;;7.26;83.85
40794;BME280;26502;51.886;15.604;2022-11-27T14:52:28;101766.25;;;7.20;83.99
40794;BME280;26502;51.886;15.604;2022-11-27T14:57:39;101759.71;;;7.16;83.94
40794;BME280;26502;51.886;15.604;2022-11-27T15:02:47;101754.25;;;7.14;84.02
40794;BME280;26502;51.886;15.604;2022-11-27T15:07:57;101754.08;;;7.16;83.98
40794;BME280;26502;51.886;15.604;2022-11-27T15:13:15;101748.77;;;7.10;83.79
40794;BME280;26502;51.886;15.604;2022-11-27T15:18:27;101741.71;;;7.01;83.74
40794;BME280;26502;51.886;15.604;2022-11-27T15:23:42;101746.32;;;6.95;83.80
40794;BME280;26502;51.886;15.604;2022-11-27T15:28:52;101747.20;;;6.88;83.78
40794;BME280;26502;51.886;15.604;2022-11-27T15:34:04;101743.67;;;6.82;83.68
40794;BME280;26502;51.886;15.604;2022-11-27T15:39:18;101744.90;;;6.76;83.64
40794;BME280;26502;51.886;15.604;2022-11-27T15:44:28;101741.02;;;6.72;83.63
40794;BME280;26502;51.886;15.604;2022-11-27T15:49:34;101739.77;;;6.62;83.63
40794;BME280;26502;51.886;15.604;2022-11-27T15:54:42;101726.67;;;6.46;83.35
40794;BME280;26502;51.886;15.604;2022-11-27T15:59:50;101716.95;;;6.29;83.08
40794;BME280;26502;51.886;15.604;2022-11-27T16:04:58;101700.88;;;6.15;83.03
40794;BME280;26502;51.886;15.604;2022-11-27T16:10:07;101696.27;;;6.05;82.99
40794;BME280;26502;51.886;15.604;2022-11-27T16:15:14;101692.46;;;5.82;82.79
40794;BME280;26502;51.886;15.604;2022-11-27T16:20:22;101700.35;;;5.70;82.97
40794;BME280;26502;51.886;15.604;2022-11-27T16:25:29;101707.72;;;5.63;83.09
40794;BME280;26502;51.886;15.604;2022-11-27T16:30:38;101706.65;;;5.61;83.50
40794;BME280;26502;51.886;15.604;2022-11-27T16:35:46;101711.75;;;5.56;83.33
40794;BME280;26502;51.886;15.604;2022-11-27T16:41:00;101708.55;;;5.50;83.70
40794;BME280;26502;51.886;15.604;2022-11-27T16:46:13;101704.14;;;5.54;83.96
40794;BME280;26502;51.886;15.604;2022-11-27T16:51:24;101708.03;;;5.54;84.09
40794;BME280;26502;51.886;15.604;2022-11-27T16:56:34;101701.52;;;5.56;84.25
40794;BME280;26502;51.886;15.604;2022-11-27T17:01:43;101694.48;;;5.58;84.07
40794;BME280;26502;51.886;15.604;2022-11-27T17:06:52;101689.05;;;5.61;84.14
40794;BME280;26502;51.886;15.604;2022-11-27T17:12:01;101684.09;;;5.59;84.12
40794;BME280;26502;51.886;15.604;2022-11-27T17:17:10;101680.02;;;5.56;84.29
40794;BME280;26502;51.886;15.604;2022-11-27T17:22:20;101681.55;;;5.44;84.09
40794;BME280;26502;51.886;15.604;2022-11-27T17:27:28;101676.11;;;5.44;84.42
40794;BME280;26502;51.886;15.604;2022-11-27T17:32:38;101670.02;;;5.63;84.78
40794;BME280;26502;51.886;15.604;2022-11-27T17:37:47;101675.69;;;5.71;84.60
40794;BME280;26502;51.886;15.604;2022-11-27T17:42:55;101665.30;;;5.74;84.47
40794;BME280;26502;51.886;15.604;2022-11-27T17:48:04;101649.63;;;5.80;84.54
40794;BME280;26502;51.886;15.604;2022-11-27T17:53:13;101643.63;;;5.83;84.56
40794;BME280;26502;51.886;15.604;2022-11-27T17:58:21;101630.76;;;5.81;84.49
40794;BME280;26502;51.886;15.604;2022-11-27T18:03:30;101622.65;;;5.82;84.55
40794;BME280;26502;51.886;15.604;2022-11-27T18:08:38;101615.60;;;5.84;84.34
40794;BME280;26502;51.886;15.604;2022-11-27T18:13:47;101614.34;;;5.71;84.21
40794;BME280;26502;51.886;15.604;2022-11-27T18:18:55;101612.05;;;5.69;84.39
40794;BME280;26502;51.886;15.604;2022-11-27T18:24:03;101615.24;;;5.76;84.42
40794;BME280;26502;51.886;15.604;2022-11-27T18:29:11;101613.81;;;5.74;84.27
40794;BME280;26502;51.886;15.604;2022-11-27T18:34:21;101615.23;;;5.74;84.30
40794;BME280;26502;51.886;15.604;2022-11-27T18:39:31;101622.96;;;5.66;84.09
40794;BME280;26502;51.886;15.604;2022-11-27T18:44:39;101616.25;;;5.60;84.16
40794;BME280;26502;51.886;15.604;2022-11-27T18:49:50;101617.12;;;5.55;84.11
40794;BME280;26502;51.886;15.604;2022-11-27T18:55:00;101614.98;;;5.46;84.17
40794;BME280;26502;51.886;15.604;2022-11-27T19:00:09;101606.52;;;5.46;84.23
40794;BME280;26502;51.886;15.604;2022-11-27T19:05:17;101598.73;;;5.37;84.42
40794;BME280;26502;51.886;15.604;2022-11-27T19:10:25;101591.83;;;5.30;84.38
40794;BME280;26502;51.886;15.604;2022-11-27T19:15:33;101587.77;;;5.27;84.33
40794;BME280;26502;51.886;15.604;2022-11-27T19:20:44;101580.04;;;5.29;84.48
40794;BME280;26502;51.886;15.604;2022-11-27T19:25:53;101577.56;;;5.25;84.30
40794;BME280;26502;51.886;15.604;2022-11-27T19:31:03;101580.17;;;5.18;84.35
40794;BME280;26502;51.886;15.604;2022-11-27T19:36:14;101582.45;;;5.19;84.59
40794;BME280;26502;51.886;15.604;2022-11-27T19:41:24;101584.91;;;5.17;84.43
40794;BME280;26502;51.886;15.604;2022-11-27T19:46:33;101586.46;;;5.09;84.51
40794;BME280;26502;51.886;15.604;2022-11-27T19:51:47;101575.51;;;5.02;84.53
40794;BME280;26502;51.886;15.604;2022-11-27T19:56:55;101568.64;;;5.01;84.60
40794;BME280;26502;51.886;15.604;2022-11-27T20:02:04;101563.89;;;5.04;84.54
40794;BME280;26502;51.886;15.604;2022-11-27T20:07:14;101556.84;;;4.97;84.85
40794;BME280;26502;51.886;15.604;2022-11-27T20:12:24;101555.94;;;4.96;84.79
40794;BME280;26502;51.886;15.604;2022-11-27T20:17:30;101558.26;;;5.00;84.92
40794;BME280;26502;51.886;15.604;2022-11-27T20:22:39;101559.48;;;4.99;84.89
40794;BME280;26502;51.886;15.604;2022-11-27T20:27:47;101554.55;;;5.00;85.03
40794;BME280;26502;51.886;15.604;2022-11-27T20:32:56;101546.30;;;5.03;84.92
40794;BME280;26502;51.886;15.604;2022-11-27T20:38:06;101545.91;;;4.95;84.90
40794;BME280;26502;51.886;15.604;2022-11-27T20:43:17;101545.36;;;4.91;84.63
40794;BME280;26502;51.886;15.604;2022-11-27T20:48:25;101543.92;;;4.86;84.80
40794;BME280;26502;51.886;15.604;2022-11-27T20:53:37;101543.54;;;4.80;84.70
40794;BME280;26502;51.886;15.604;2022-11-27T20:58:47;101535.61;;;4.76;84.87
40794;BME280;26502;51.886;15.604;2022-11-27T21:03:59;101538.28;;;4.83;85.01
40794;BME280;26502;51.886;15.604;2022-11-27T21:09:07;101536.16;;;4.83;84.93
40794;BME280;26502;51.886;15.604;2022-11-27T21:14:15;101530.71;;;4.81;84.91
40794;BME280;26502;51.886;15.604;2022-11-27T21:19:26;101521.38;;;4.83;85.09
40794;BME280;26502;51.886;15.604;2022-11-27T21:24:32;101519.09;;;4.84;84.74
40794;BME280;26502;51.886;15.604;2022-11-27T21:29:42;101510.63;;;4.80;84.76
40794;BME280;26502;51.886;15.604;2022-11-27T21:34:50;101506.79;;;4.84;84.84
40794;BME280;26502;51.886;15.604;2022-11-27T21:39:57;101499.91;;;4.84;84.86
40794;BME280;26502;51.886;15.604;2022-11-27T21:45:06;101492.02;;;4.90;84.80
40794;BME280;26502;51.886;15.604;2022-11-27T21:50:14;101491.86;;;4.92;84.58
40794;BME280;26502;51.886;15.604;2022-11-27T21:55:21;101491.84;;;4.88;84.63
40794;BME280;26502;51.886;15.604;2022-11-27T22:00:29;101493.77;;;4.86;84.54
40794;BME280;26502;51.886;15.604;2022-11-27T22:05:37;101489.55;;;4.85;84.58
40794;BME280;26502;51.886;15.604;2022-11-27T22:10:46;101483.02;;;4.83;84.49
40794;BME280;26502;51.886;15.604;2022-11-27T22:15:54;101478.42;;;4.81;84.51
40794;BME280;26502;51.886;15.604;2022-11-27T22:21:05;101476.13;;;4.74;84.31
40794;BME280;26502;51.886;15.604;2022-11-27T22:26:15;101468.69;;;4.66;84.27
40794;BME280;26502;51.886;15.604;2022-11-27T22:31:22;101461.98;;;4.61;84.18
40794;BME280;26502;51.886;15.604;2022-11-27T22:36:33;101460.52;;;4.50;84.21
40794;BME280;26502;51.886;15.604;2022-11-27T22:41:43;101459.11;;;4.50;84.29
40794;BME280;26502;51.886;15.604;2022-11-27T22:46:52;101453.45;;;4.47;84.27
40794;BME280;26502;51.886;15.604;2022-11-27T22:52:01;101450.27;;;4.41;84.26
40794;BME280;26502;51.886;15.604;2022-11-27T22:57:10;101449.91;;;4.39;84.00
40794;BME280;26502;51.886;15.604;2022-11-27T23:02:19;101449.04;;;4.40;83.93
40794;BME280;26502;51.886;15.604;2022-11-27T23:07:27;101447.10;;;4.39;83.99
40794;BME280;26502;51.886;15.604;2022-11-27T23:12:34;101441.30;;;4.39;84.04
40794;BME280;26502;51.886;15.604;2022-11-27T23:17:41;101432.52;;;4.44;84.11
40794;BME280;26502;51.886;15.604;2022-11-27T23:22:49;101425.64;;;4.40;84.07
40794;BME280;26502;51.886;15.604;2022-11-27T23:27:57;101419.30;;;4.36;84.09
40794;BME280;26502;51.886;15.604;2022-11-27T23:33:04;101416.11;;;4.35;84.03
40794;BME280;26502;51.886;15.604;2022-11-27T23:38:11;101414.17;;;4.31;84.18
40794;BME280;26502;51.886;15.604;2022-11-27T23:43:19;101412.23;;;4.29;84.11
40794;BME280;26502;51.886;15.604;2022-11-27T23:48:27;101406.63;;;4.34;84.36
40794;BME280;26502;51.886;15.604;2022-11-27T23:53:34;101400.11;;;4.35;84.23
40794;BME280;26502;51.886;15.604;2022-11-27T23:58:41;101398.55;;;4.34;83.99
